Wittenberg, Missouri
Current Conditions -  °F | °C
As of 9:52 PM on Tuesday 21 Oct 2014 (Local Time) from KMDH Reporting Station
Clear Clear  
Wind Chill: 51°   Ceiling: Unl
Heat Index: 51°   Visibility: NA
Dew Point: 42°   Wind: 7mph
Humidity: 71%   Direction: 50°NE
Pressure: 30.18"   Gusts: NA
Location:  37.677°N, 89.664°W
Report Text: KMDH 220252Z AUTO 05006KT CLR 11/06 A3018 RMK AO2 SLP220 T01060056 52021 $
Loading
Personal Weather Stations






























Interactive Weather Map
Tropical Storm Tracking
New forecast layout! Learn more

10-Day Weather Forecast

Advertisements
Track Severe Weather on mobile